Impacts TAF Board INFO
FOR SITUATIONAL AWARENESS. NOT TO BE USED FOR FLIGHT PLANNING PURPOSES.
IDs:

KDFW - Dallas-Ft Worth Intl, TX, US

Issued at 2055 UTC 24 Apr 2018
Updated at 2104 UTC 24 Apr 2018
Potential Impact None Slight Moderate High
Time<<25/22Z 25/23Z 26/00Z 26/01Z 26/02Z 26/03Z 26/04Z 26/05Z 26/06Z 26/07Z 26/08Z 26/09Z 26/10Z
Type PRVL PRVL
VIS >6 >6
CIG 15 15
Cover OVC OVC
FltCat MVFR MVFR
WX VCSH VCSH
WDir 340 340
WSpd 15 15
WGst -- --

Raw TAF
KDFW 242055Z 2421/2524 08006KT P6SM FEW250
  FM250700 05004KT P6SM VCSH BKN050 BKN120 OVC250
  FM251000 02004KT P6SM BKN050 BKN120 OVC250
  FM251500 34015KT P6SM BKN015 BKN050 OVC120
  FM251900 34015KT P6SM VCSH BKN015 OVC050


METAR Board
Radar Display
Forecast Discussion

FOR SITUATIONAL AWARENESS. NOT TO BE USED FOR FLIGHT PLANNING PURPOSES.